Time;durP1;ratioP1;P1;durP2;ratioP2;P2;SDS_P1;SDS_P2;PMS_P1;PMS_P2;Temp;Humidity;BMP_temperature;BMP_pressure;BME280_temperature;BME280_humidity;BME280_pressure;Samples;Min_cycle;Max_cycle;Signal;HPM_P1;HPM_P2
2022/11/05 00:10:30;;;;;;;5.80;2.55;;;25.60;94.70;;;;;;5087034;28;20051;-44
2022/11/05 00:18:28;;;;;;;3.28;2.03;;;25.60;94.60;;;;;;5087239;28;20055;-49
2022/11/05 00:20:55;;;;;;;4.72;2.00;;;25.60;94.60;;;;;;5086726;28;20021;-51
2022/11/05 00:26:08;;;;;;;7.18;4.28;;;25.60;94.60;;;;;;5086593;28;20100;-52
2022/11/05 00:28:35;;;;;;;9.48;3.30;;;25.60;94.60;;;;;;5086300;28;20324;-50
2022/11/05 00:31:04;;;;;;;5.95;2.60;;;25.60;94.80;;;;;;5086783;28;20017;-47
2022/11/05 00:33:31;;;;;;;6.75;3.08;;;25.60;94.50;;;;;;5087442;28;20316;-44
2022/11/05 00:36:02;;;;;;;10.60;2.40;;;25.60;94.50;;;;;;5086645;28;20036;-43
2022/11/05 00:38:29;;;;;;;6.47;2.45;;;25.60;94.50;;;;;;5086840;28;20047;-41
2022/11/05 00:40:56;;;;;;;5.43;3.30;;;25.60;94.50;;;;;;5087180;28;20020;-45
2022/11/05 00:46:08;;;;;;;4.13;1.90;;;25.60;94.60;;;;;;5086666;28;20047;-46
2022/11/05 00:51:19;;;;;;;5.53;2.65;;;25.60;94.60;;;;;;5086216;28;20039;-43
2022/11/05 00:53:46;;;;;;;8.45;4.70;;;25.60;94.60;;;;;;5086558;28;20204;-46
2022/11/05 00:56:13;;;;;;;8.38;4.30;;;25.60;94.60;;;;;;5086463;28;20070;-46
2022/11/05 00:58:39;;;;;;;4.70;2.67;;;25.60;94.60;;;;;;5086473;28;20048;-45
2022/11/05 01:01:06;;;;;;;4.15;2.83;;;25.60;94.80;;;;;;5086449;28;20142;-46
2022/11/05 01:03:38;;;;;;;5.10;2.28;;;25.60;94.60;;;;;;5086266;28;20325;-46
2022/11/05 01:06:11;;;;;;;4.97;2.30;;;25.60;94.60;;;;;;5086654;28;20032;-48
2022/11/05 01:08:39;;;;;;;5.97;1.98;;;25.60;94.60;;;;;;5086623;28;20017;-49
2022/11/05 01:11:32;;;;;;;9.25;2.20;;;25.60;94.60;;;;;;5086135;28;20036;-45
2022/11/05 01:14:04;;;;;;;4.28;1.60;;;25.60;94.60;;;;;;5086434;28;20204;-53
2022/11/05 01:16:31;;;;;;;9.57;2.25;;;25.60;94.60;;;;;;5086476;28;20028;-41
2022/11/05 01:19:00;;;;;;;6.15;1.80;;;25.60;94.60;;;;;;5086196;28;20074;-42
2022/11/05 01:21:26;;;;;;;4.30;1.60;;;25.60;94.60;;;;;;5086225;28;20036;-49
2022/11/05 01:23:53;;;;;;;3.60;1.40;;;25.60;94.60;;;;;;5086311;28;20032;-47
2022/11/05 01:26:20;;;;;;;2.45;1.67;;;25.60;94.60;;;;;;5086308;28;20028;-47
2022/11/05 01:28:59;;;;;;;3.22;1.25;;;25.60;94.60;;;;;;5086607;28;20040;-50
2022/11/05 01:31:28;;;;;;;4.07;1.27;;;25.60;94.60;;;;;;5086557;28;20024;-41
2022/11/05 01:33:54;;;;;;;3.00;1.33;;;25.60;94.60;;;;;;5086234;28;20217;-42
2022/11/05 01:36:21;;;;;;;2.28;1.27;;;25.60;94.60;;;;;;5085832;28;20245;-44
2022/11/05 01:38:47;;;;;;;3.95;1.90;;;25.60;94.70;;;;;;5085893;28;20054;-42
2022/11/05 01:41:14;;;;;;;4.60;2.22;;;25.60;94.70;;;;;;5085999;28;20048;-44
2022/11/05 01:43:53;;;;;;;5.88;1.83;;;25.60;94.70;;;;;;5085974;28;20047;-48
2022/11/05 01:46:37;;;;;;;4.68;1.60;;;25.60;94.60;;;;;;5085971;28;20200;-41
2022/11/05 01:49:14;;;;;;;3.97;1.42;;;25.60;94.70;;;;;;5085901;28;20009;-46
2022/11/05 01:51:41;;;;;;;4.78;1.08;;;25.60;94.70;;;;;;5085652;28;20036;-46
2022/11/05 01:54:15;;;;;;;3.90;1.20;;;25.60;94.70;;;;;;5085469;28;20201;-46
2022/11/05 01:56:50;;;;;;;10.80;1.33;;;25.50;94.70;;;;;;5086030;28;20029;-44
2022/11/05 01:59:31;;;;;;;5.20;1.60;;;25.50;94.70;;;;;;5085664;28;20016;-44
2022/11/05 02:01:58;;;;;;;10.55;1.92;;;25.50;94.70;;;;;;5085725;28;20305;-42
2022/11/05 02:04:34;;;;;;;4.57;2.00;;;25.50;94.70;;;;;;5085813;28;20020;-47
2022/11/05 02:07:03;;;;;;;4.95;1.48;;;25.60;94.70;;;;;;5085405;28;20059;-44
2022/11/05 02:10:08;;;;;;;5.72;1.40;;;25.50;94.70;;;;;;5085283;28;20021;-47
2022/11/05 02:12:37;;;;;;;6.30;1.40;;;25.50;94.70;;;;;;5085217;28;20312;-42
2022/11/05 02:15:05;;;;;;;4.47;1.40;;;25.50;94.60;;;;;;5085063;28;20292;-43
2022/11/05 02:17:53;;;;;;;4.07;1.35;;;25.50;94.60;;;;;;5085107;28;20279;-47
2022/11/05 02:20:28;;;;;;;4.32;1.75;;;25.50;94.70;;;;;;5085613;28;20300;-45
2022/11/05 02:23:31;;;;;;;5.60;2.20;;;25.50;94.70;;;;;;5084290;28;20060;-44
2022/11/05 02:26:35;;;;;;;4.10;2.03;;;25.50;94.70;;;;;;5084625;28;20381;-44
2022/11/05 02:29:29;;;;;;;7.35;2.80;;;25.50;94.80;;;;;;5084555;28;20273;-45
2022/11/05 02:32:25;;;;;;;8.45;3.90;;;25.50;94.70;;;;;;5084514;28;20028;-49
2022/11/05 02:35:06;;;;;;;4.28;2.50;;;25.50;94.80;;;;;;5085026;28;20175;-40
2022/11/05 02:37:40;;;;;;;5.68;3.20;;;25.50;94.80;;;;;;5084981;28;20114;-43
2022/11/05 02:40:45;;;;;;;4.80;2.70;;;25.50;94.80;;;;;;5085123;28;20096;-45
2022/11/05 02:43:34;;;;;;;4.75;2.00;;;25.50;94.80;;;;;;5085490;28;20028;-44
2022/11/05 02:46:28;;;;;;;4.38;1.40;;;25.50;94.80;;;;;;5083206;28;20227;-44
2022/11/05 02:49:22;;;;;;;5.78;1.58;;;25.50;94.80;;;;;;5084608;28;20028;-43
2022/11/05 02:52:22;;;;;;;5.70;1.83;;;25.50;94.80;;;;;;5049613;28;20102;-43
2022/11/05 02:55:05;;;;;;;4.10;1.73;;;25.50;94.80;;;;;;5084661;28;20020;-46
2022/11/05 02:57:35;;;;;;;5.05;1.75;;;25.50;94.80;;;;;;5084801;28;20032;-42
2022/11/05 03:00:28;;;;;;;5.32;1.95;;;25.50;94.90;;;;;;5084491;28;20204;-40
2022/11/05 03:02:55;;;;;;;5.10;2.20;;;25.50;94.90;;;;;;5068975;28;20048;-47
2022/11/05 03:05:29;;;;;;;5.00;2.67;;;25.50;94.90;;;;;;5084956;28;20259;-44
2022/11/05 03:08:07;;;;;;;4.35;2.45;;;25.50;94.80;;;;;;5084974;28;20073;-46
2022/11/05 03:10:46;;;;;;;9.45;2.35;;;25.50;94.80;;;;;;5084656;28;20076;-49
2022/11/05 03:13:27;;;;;;;4.90;1.77;;;25.50;94.90;;;;;;5085050;28;20037;-42
2022/11/05 03:16:01;;;;;;;5.03;2.20;;;25.50;94.90;;;;;;5084679;28;20013;-46
2022/11/05 03:18:50;;;;;;;5.40;1.70;;;25.50;94.90;;;;;;5084412;28;20142;-44
2022/11/05 03:21:52;;;;;;;5.43;1.45;;;25.50;94.90;;;;;;5084536;28;20028;-47
2022/11/05 03:24:25;;;;;;;4.70;1.40;;;25.50;94.90;;;;;;5071132;28;20052;-46
2022/11/05 03:26:54;;;;;;;2.63;1.00;;;25.50;94.90;;;;;;5084693;28;20020;-42
2022/11/05 03:29:36;;;;;;;2.22;1.10;;;25.40;95.00;;;;;;5084693;28;20084;-42
2022/11/05 03:32:05;;;;;;;16.75;1.75;;;25.50;95.00;;;;;;5084750;28;20073;-48
2022/11/05 03:34:38;;;;;;;2.70;1.20;;;25.40;95.10;;;;;;5087360;28;20032;-46
2022/11/05 03:37:06;;;;;;;6.80;1.17;;;25.50;95.10;;;;;;5088784;28;20019;-41
2022/11/05 03:39:37;;;;;;;3.08;1.05;;;25.50;95.10;;;;;;5088041;28;20232;-43
2022/11/05 03:42:07;;;;;;;5.57;1.20;;;25.50;95.10;;;;;;5088300;28;20025;-46
2022/11/05 03:44:37;;;;;;;4.30;0.80;;;25.50;95.00;;;;;;5088138;28;20021;-45
2022/11/05 03:47:09;;;;;;;3.30;0.95;;;25.50;95.00;;;;;;5088102;28;20056;-40
2022/11/05 03:49:39;;;;;;;23.15;3.08;;;25.40;95.00;;;;;;5088406;28;20032;-42
2022/11/05 03:52:10;;;;;;;6.75;1.60;;;25.40;95.10;;;;;;5088043;28;20211;-45
2022/11/05 03:54:36;;;;;;;4.47;0.98;;;25.40;95.10;;;;;;5087980;28;20052;-45
2022/11/05 03:57:24;;;;;;;2.67;1.10;;;25.40;95.10;;;;;;5088469;28;20032;-41
2022/11/05 03:59:51;;;;;;;4.05;0.82;;;25.50;95.20;;;;;;5088056;28;20027;-43
2022/11/05 04:02:21;;;;;;;2.78;0.70;;;25.40;95.10;;;;;;5088199;28;20315;-45
2022/11/05 04:04:47;;;;;;;7.30;0.90;;;25.40;95.20;;;;;;5087686;28;20265;-44
2022/11/05 04:17:05;;;;;;;13.60;1.63;;;25.40;95.20;;;;;;5087157;28;20142;-43
2022/11/05 04:18:17;;;;;;;39.72;1.98;;;25.40;95.20;;;;;;5088287;28;20036;-41
2022/11/05 04:26:23;;;;;;;4.20;0.80;;;25.40;95.20;;;;;;5087791;28;20047;-43
2022/11/05 04:31:36;;;;;;;3.60;0.70;;;25.40;95.30;;;;;;5087220;28;20043;-40
2022/11/05 04:34:03;;;;;;;5.55;0.70;;;25.40;95.30;;;;;;5087126;28;20028;-44
2022/11/05 04:36:30;;;;;;;6.03;0.80;;;25.40;95.30;;;;;;5087175;28;20054;-45
2022/11/05 04:38:56;;;;;;;6.90;0.80;;;25.40;95.30;;;;;;5084154;28;20119;-44
2022/11/05 04:41:23;;;;;;;6.88;0.80;;;25.40;95.30;;;;;;5085668;28;20024;-40
2022/11/05 04:43:49;;;;;;;10.20;0.90;;;25.40;95.30;;;;;;5078635;28;20032;-41
2022/11/05 04:46:16;;;;;;;5.85;0.90;;;25.40;95.30;;;;;;5079775;28;20020;-40
2022/11/05 04:48:42;;;;;;;4.18;0.70;;;25.30;95.30;;;;;;5083876;28;20308;-44
2022/11/05 04:51:09;;;;;;;6.95;0.70;;;25.40;95.40;;;;;;5086271;28;20020;-41
2022/11/05 04:53:35;;;;;;;3.97;0.80;;;25.40;95.40;;;;;;5083135;28;20028;-43
2022/11/05 04:56:19;;;;;;;3.92;0.93;;;25.40;95.40;;;;;;5086221;28;20251;-47
2022/11/05 04:58:48;;;;;;;6.07;1.20;;;25.40;95.40;;;;;;5086362;28;20013;-41
2022/11/05 05:01:20;;;;;;;3.60;1.00;;;25.40;95.50;;;;;;5086227;28;20330;-44
2022/11/05 05:03:47;;;;;;;;;;;25.30;95.40;;;;;;5085828;28;20028;-42
2022/11/05 05:06:13;;;;;;;5.53;1.10;;;25.30;95.40;;;;;;5085981;28;20131;-43
2022/11/05 05:08:40;;;;;;;3.55;0.80;;;25.40;95.40;;;;;;5086140;28;20336;-41
2022/11/05 05:11:09;;;;;;;5.28;0.82;;;25.30;95.40;;;;;;5085826;28;20083;-43
2022/11/05 05:13:36;;;;;;;4.93;0.95;;;25.30;95.30;;;;;;5085779;28;20059;-44
2022/11/05 05:16:17;;;;;;;5.18;1.25;;;25.40;95.30;;;;;;5085720;28;20021;-46
2022/11/05 05:18:45;;;;;;;5.35;0.80;;;25.40;95.30;;;;;;5085711;28;20024;-43
2022/11/05 05:23:57;;;;;;;4.50;0.93;;;25.40;95.30;;;;;;5085666;28;20058;-44
2022/11/05 05:26:23;;;;;;;3.90;0.93;;;25.40;95.30;;;;;;5082597;28;20312;-41
2022/11/05 05:28:54;;;;;;;5.07;1.00;;;25.40;95.30;;;;;;5068403;28;20060;-45
2022/11/05 05:31:22;;;;;;;5.35;0.88;;;25.30;95.30;;;;;;5085650;28;20035;-46
2022/11/05 05:33:51;;;;;;;3.95;0.80;;;25.30;95.30;;;;;;5085638;28;20024;-42
2022/11/05 05:36:18;;;;;;;3.50;0.63;;;25.30;95.30;;;;;;5085342;28;20029;-45
2022/11/05 05:38:47;;;;;;;6.28;0.80;;;25.30;95.30;;;;;;5085500;28;20020;-41
2022/11/05 05:41:14;;;;;;;4.25;0.68;;;25.30;95.30;;;;;;5084927;28;20112;-43
2022/11/05 05:43:41;;;;;;;3.33;0.70;;;25.30;95.30;;;;;;5085279;28;20020;-46
2022/11/05 05:46:10;;;;;;;4.38;0.88;;;25.30;95.30;;;;;;5085221;28;20023;-40
2022/11/05 05:48:37;;;;;;;3.47;0.60;;;25.40;95.30;;;;;;5085230;28;20048;-38
2022/11/05 05:51:06;;;;;;;5.35;0.50;;;25.30;95.20;;;;;;5085004;28;20055;-46
2022/11/05 05:53:33;;;;;;;5.20;0.70;;;25.30;95.20;;;;;;5085028;28;20035;-41
2022/11/05 05:56:00;;;;;;;6.63;0.70;;;25.30;95.20;;;;;;5084473;28;20035;-44
2022/11/05 05:58:34;;;;;;;8.13;0.70;;;25.40;95.20;;;;;;5084881;28;20087;-43
2022/11/05 06:01:06;;;;;;;5.07;0.90;;;25.30;95.10;;;;;;5085239;28;20035;-42
2022/11/05 06:03:32;;;;;;;8.15;1.10;;;25.30;95.10;;;;;;5085022;28;20033;-41
2022/11/05 06:06:04;;;;;;;7.40;0.98;;;25.30;95.10;;;;;;5084769;28;20247;-42
2022/11/05 06:08:31;;;;;;;5.70;0.63;;;25.30;95.10;;;;;;5084775;28;20020;-41
2022/11/05 06:10:59;;;;;;;19.42;1.45;;;25.30;95.10;;;;;;5084704;28;20047;-42
2022/11/05 06:13:27;;;;;;;2.97;0.60;;;25.30;95.10;;;;;;5084884;28;20079;-40
2022/11/05 06:15:58;;;;;;;5.68;0.70;;;25.30;95.10;;;;;;5084654;28;20071;-45
2022/11/05 06:18:25;;;;;;;3.38;0.82;;;25.30;95.00;;;;;;5084526;28;20034;-41
2022/11/05 06:20:51;;;;;;;5.55;0.80;;;25.30;95.00;;;;;;5084569;28;20265;-41
2022/11/05 06:23:18;;;;;;;3.28;0.80;;;25.20;95.00;;;;;;5084838;28;20051;-47
2022/11/05 06:25:44;;;;;;;25.10;2.58;;;25.20;95.00;;;;;;5084556;28;20035;-41
2022/11/05 06:28:11;;;;;;;5.78;2.03;;;25.20;95.00;;;;;;5084882;28;20090;-49
2022/11/05 06:30:38;;;;;;;6.80;3.75;;;25.20;95.00;;;;;;5084505;28;20088;-41
2022/11/05 06:33:05;;;;;;;10.38;6.38;;;25.20;94.90;;;;;;5084741;28;20083;-43
2022/11/05 06:35:32;;;;;;;7.45;4.40;;;25.20;94.90;;;;;;5084313;28;20078;-42
2022/11/05 06:38:02;;;;;;;5.00;3.30;;;25.20;94.80;;;;;;5084784;28;20020;-40
2022/11/05 06:40:28;;;;;;;7.10;2.75;;;25.20;94.80;;;;;;5084262;28;20040;-40
2022/11/05 06:42:55;;;;;;;4.18;2.15;;;25.20;94.80;;;;;;5084722;28;20040;-39
2022/11/05 06:45:22;;;;;;;2.92;1.60;;;25.20;94.80;;;;;;5084344;28;20023;-44
2022/11/05 06:47:53;;;;;;;5.65;1.90;;;25.20;94.80;;;;;;5084570;28;20041;-44
2022/11/05 06:50:20;;;;;;;5.45;1.33;;;25.20;94.80;;;;;;5084180;28;20023;-40
2022/11/05 06:52:56;;;;;;;6.47;1.55;;;25.20;94.80;;;;;;5084581;28;20028;-42
2022/11/05 06:55:23;;;;;;;8.38;1.40;;;25.20;94.80;;;;;;5084015;28;20070;-49
2022/11/05 06:57:50;;;;;;;4.05;1.00;;;25.20;94.80;;;;;;5084438;28;20032;-44
2022/11/05 07:00:17;;;;;;;7.13;1.65;;;25.10;94.80;;;;;;5084038;28;20032;-44
2022/11/05 07:02:45;;;;;;;5.43;0.98;;;25.10;94.80;;;;;;5084129;28;20029;-42
2022/11/05 07:05:12;;;;;;;19.15;1.63;;;25.10;94.80;;;;;;5083924;28;20059;-40
2022/11/05 07:07:43;;;;;;;6.00;0.95;;;25.10;94.80;;;;;;5083666;28;20073;-39
2022/11/05 07:10:15;;;;;;;4.93;1.20;;;25.10;94.90;;;;;;5083816;28;20024;-42
2022/11/05 07:12:42;;;;;;;3.38;0.85;;;25.10;94.80;;;;;;5084286;28;20043;-40
2022/11/05 07:15:10;;;;;;;5.85;1.10;;;25.10;94.80;;;;;;5083982;28;20092;-39
2022/11/05 07:17:37;;;;;;;5.93;1.00;;;25.10;94.80;;;;;;5084324;28;20037;-42
2022/11/05 07:20:05;;;;;;;5.70;1.10;;;25.10;94.80;;;;;;5083834;28;20015;-40
2022/11/05 07:22:33;;;;;;;4.15;1.00;;;25.10;94.70;;;;;;5083807;28;20058;-41
2022/11/05 07:25:00;;;;;;;6.07;1.00;;;25.10;95.00;;;;;;5083809;28;20040;-47
2022/11/05 07:27:27;;;;;;;7.20;1.33;;;25.10;94.80;;;;;;5084172;28;20057;-54
2022/11/05 07:29:53;;;;;;;8.35;1.20;;;25.10;94.80;;;;;;5083672;28;20027;-50
2022/11/05 07:32:20;;;;;;;4.65;0.90;;;25.10;94.80;;;;;;5083969;28;20240;-43
2022/11/05 07:34:46;;;;;;;3.03;0.93;;;25.10;94.80;;;;;;5083827;28;20013;-44
2022/11/05 07:37:15;;;;;;;6.53;1.10;;;25.10;94.80;;;;;;5083888;28;20324;-44
2022/11/05 07:39:42;;;;;;;3.92;0.88;;;25.10;94.80;;;;;;5084093;28;20028;-42
2022/11/05 07:42:12;;;;;;;4.40;1.15;;;25.10;94.90;;;;;;5083861;28;20032;-46
2022/11/05 07:44:39;;;;;;;2.97;0.80;;;25.10;94.80;;;;;;5083591;28;20036;-39
2022/11/05 07:47:05;;;;;;;6.32;1.05;;;25.10;94.90;;;;;;5083805;28;20044;-41
2022/11/05 07:49:32;;;;;;;5.20;0.95;;;25.00;94.80;;;;;;5083550;28;20243;-42
2022/11/05 07:51:58;;;;;;;5.80;1.20;;;25.00;94.80;;;;;;5083390;28;20104;-39
2022/11/05 07:54:25;;;;;;;4.65;1.08;;;25.10;94.80;;;;;;5083480;28;20027;-40
2022/11/05 07:56:52;;;;;;;9.50;1.10;;;25.10;94.80;;;;;;5083803;28;20063;-47
2022/11/05 07:59:19;;;;;;;7.38;1.10;;;25.00;94.80;;;;;;5083572;28;20028;-42
2022/11/05 08:01:45;;;;;;;4.15;0.73;;;25.00;94.80;;;;;;5083724;28;20040;-46
2022/11/05 08:04:12;;;;;;;5.55;0.85;;;25.00;94.80;;;;;;5083475;28;20031;-44
2022/11/05 08:06:38;;;;;;;5.93;0.98;;;25.00;94.80;;;;;;5081767;28;20100;-39
2022/11/05 08:09:05;;;;;;;2.88;0.80;;;25.10;94.80;;;;;;5082012;28;20031;-42
2022/11/05 08:11:33;;;;;;;3.15;0.88;;;25.00;94.80;;;;;;5082160;28;20024;-46
2022/11/05 08:14:00;;;;;;;5.07;0.90;;;25.10;94.80;;;;;;5063168;28;20305;-42
2022/11/05 08:16:27;;;;;;;5.38;1.10;;;25.00;94.80;;;;;;5063193;28;20056;-47
2022/11/05 08:18:53;;;;;;;7.88;1.33;;;25.00;94.80;;;;;;5079813;28;20047;-42
2022/11/05 08:21:20;;;;;;;3.22;0.77;;;25.00;94.80;;;;;;5086917;28;20138;-44
2022/11/05 08:23:46;;;;;;;4.47;0.70;;;25.00;94.80;;;;;;5084708;28;20040;-48
2022/11/05 08:26:13;;;;;;;2.95;0.70;;;25.00;94.80;;;;;;5086884;28;20083;-41
2022/11/05 08:28:39;;;;;;;4.57;1.08;;;25.00;94.80;;;;;;5086913;28;20020;-44
2022/11/05 08:31:06;;;;;;;5.50;1.00;;;25.00;94.80;;;;;;5086620;28;20028;-39
2022/11/05 08:33:33;;;;;;;6.07;1.00;;;25.00;94.80;;;;;;5086613;28;20050;-40
2022/11/05 08:36:03;;;;;;;6.00;1.13;;;25.00;94.80;;;;;;5086500;28;20031;-44
2022/11/05 08:38:30;;;;;;;3.58;0.90;;;25.00;94.90;;;;;;5086505;28;20031;-41
2022/11/05 08:40:57;;;;;;;3.90;1.00;;;25.00;94.90;;;;;;5086416;28;20047;-44
2022/11/05 08:43:25;;;;;;;4.82;1.08;;;25.00;95.00;;;;;;5086539;28;20031;-40
2022/11/05 08:45:53;;;;;;;5.88;0.85;;;25.00;95.00;;;;;;5086254;28;20197;-48
2022/11/05 08:48:20;;;;;;;5.78;1.00;;;25.00;95.00;;;;;;5086376;28;20024;-41
2022/11/05 08:50:48;;;;;;;4.07;1.20;;;25.00;94.90;;;;;;5086468;28;20025;-41
2022/11/05 08:53:15;;;;;;;6.50;1.30;;;24.90;95.00;;;;;;5086554;28;20040;-42
2022/11/05 08:55:43;;;;;;;10.75;1.27;;;24.90;95.00;;;;;;5086237;28;20208;-44
2022/11/05 08:58:11;;;;;;;5.18;1.50;;;24.90;95.00;;;;;;5086633;28;20070;-44
2022/11/05 09:00:38;;;;;;;5.13;1.75;;;24.90;95.00;;;;;;5085999;28;20058;-39
2022/11/05 09:03:06;;;;;;;6.50;1.75;;;25.00;95.00;;;;;;5086537;28;20030;-44
2022/11/05 09:05:38;;;;;;;5.57;1.77;;;25.00;95.00;;;;;;5086039;28;20039;-44
2022/11/05 09:08:10;;;;;;;7.35;1.75;;;25.00;94.90;;;;;;5086525;28;20074;-42
2022/11/05 09:10:37;;;;;;;5.05;1.50;;;25.00;94.90;;;;;;5086112;28;20028;-46
2022/11/05 09:13:05;;;;;;;5.15;1.83;;;25.00;94.80;;;;;;5086272;28;20036;-44
2022/11/05 09:15:32;;;;;;;3.80;1.60;;;25.00;94.80;;;;;;5086036;28;20024;-41
2022/11/05 09:17:59;;;;;;;6.68;2.35;;;25.00;94.80;;;;;;5086212;28;20048;-43
2022/11/05 09:20:25;;;;;;;9.10;1.70;;;24.90;94.90;;;;;;5085914;28;20339;-44
2022/11/05 09:22:52;;;;;;;8.30;1.80;;;25.00;94.90;;;;;;5085759;28;20044;-46
2022/11/05 09:25:19;;;;;;;4.50;1.38;;;24.90;94.90;;;;;;5084679;28;20228;-45
2022/11/05 09:27:46;;;;;;;4.10;1.00;;;24.90;94.90;;;;;;5086173;28;20030;-43
2022/11/05 09:30:13;;;;;;;3.92;1.05;;;25.00;94.90;;;;;;5085507;28;20036;-43
2022/11/05 09:32:40;;;;;;;6.93;1.02;;;25.00;94.90;;;;;;5086030;28;20064;-41
2022/11/05 09:35:08;;;;;;;4.28;1.02;;;24.90;94.90;;;;;;5085948;28;20055;-40
2022/11/05 09:37:36;;;;;;;5.05;0.95;;;24.90;94.90;;;;;;5085477;28;20032;-42
2022/11/05 09:40:03;;;;;;;5.72;1.50;;;25.00;94.90;;;;;;5085426;28;20201;-39
2022/11/05 09:42:40;;;;;;;4.88;1.17;;;24.90;94.90;;;;;;5085889;28;20051;-44
2022/11/05 09:45:18;;;;;;;5.20;0.90;;;24.90;95.00;;;;;;5085172;28;20020;-40
2022/11/05 09:48:10;;;;;;;5.32;1.00;;;24.90;95.10;;;;;;5085686;28;20118;-40
2022/11/05 09:50:42;;;;;;;5.53;0.90;;;24.80;95.10;;;;;;5085253;28;20044;-46
2022/11/05 09:53:18;;;;;;;5.45;1.17;;;24.90;95.10;;;;;;5085544;28;20223;-44
2022/11/05 09:55:53;;;;;;;6.32;1.08;;;24.90;95.10;;;;;;5085120;28;20324;-44
2022/11/05 09:58:23;;;;;;;6.65;1.05;;;24.90;95.10;;;;;;5084920;28;20242;-46
2022/11/05 10:00:51;;;;;;;3.83;1.00;;;24.90;95.10;;;;;;5085332;28;20043;-44
2022/11/05 10:03:29;;;;;;;6.70;1.10;;;24.90;95.10;;;;;;5085381;28;20048;-45
2022/11/05 10:06:07;;;;;;;3.95;0.95;;;24.90;95.10;;;;;;5084810;28;20032;-41
2022/11/05 10:08:46;;;;;;;3.60;0.95;;;24.90;95.10;;;;;;5084974;28;20100;-43
2022/11/05 10:11:45;;;;;;;3.13;1.15;;;24.90;95.10;;;;;;5084799;28;20029;-47
2022/11/05 10:14:27;;;;;;;5.22;0.90;;;24.90;95.10;;;;;;5084542;28;20028;-41
2022/11/05 10:17:07;;;;;;;5.60;1.08;;;24.90;95.20;;;;;;5084816;28;20047;-44
2022/11/05 10:19:58;;;;;;;4.10;1.20;;;24.90;95.20;;;;;;5084672;28;20029;-46
2022/11/05 10:22:24;;;;;;;4.20;1.10;;;24.90;95.30;;;;;;5084549;28;20036;-49
2022/11/05 10:24:52;;;;;;;5.68;1.10;;;24.90;95.30;;;;;;5084611;28;20039;-43
2022/11/05 10:27:22;;;;;;;4.45;1.48;;;24.90;95.30;;;;;;5084882;28;20027;-45
2022/11/05 10:29:50;;;;;;;6.63;2.03;;;24.90;95.40;;;;;;5084492;28;20070;-42
2022/11/05 10:32:33;;;;;;;9.82;2.22;;;24.90;95.40;;;;;;5083405;28;20040;-43
2022/11/05 10:35:01;;;;;;;5.43;2.20;;;24.90;95.40;;;;;;5082895;28;20030;-40
2022/11/05 10:37:29;;;;;;;7.45;2.28;;;24.90;95.40;;;;;;5084562;28;20037;-39
2022/11/05 10:39:56;;;;;;;6.72;2.40;;;24.90;95.50;;;;;;5084581;28;20023;-39
2022/11/05 10:42:45;;;;;;;6.38;2.30;;;24.90;95.70;;;;;;5082559;28;20265;-41
2022/11/05 10:45:18;;;;;;;6.10;2.10;;;24.90;95.50;;;;;;5082804;28;20020;-48
2022/11/05 10:48:03;;;;;;;7.63;2.30;;;24.80;95.60;;;;;;5084772;28;20048;-45
2022/11/05 10:50:30;;;;;;;7.97;2.40;;;24.90;95.60;;;;;;5084227;28;20084;-48
2022/11/05 10:53:01;;;;;;;11.40;2.45;;;24.90;95.70;;;;;;5084093;28;20107;-45
2022/11/05 10:55:36;;;;;;;4.83;1.67;;;24.90;95.70;;;;;;5084470;28;20320;-40
2022/11/05 10:58:15;;;;;;;5.57;2.22;;;24.90;95.60;;;;;;5084462;28;20267;-43
2022/11/05 11:01:17;;;;;;;7.80;1.75;;;24.90;95.60;;;;;;5084177;28;20013;-41
2022/11/05 11:03:48;;;;;;;6.75;1.90;;;24.90;95.60;;;;;;5084059;28;20048;-44
2022/11/05 11:06:24;;;;;;;27.77;2.90;;;24.90;95.60;;;;;;5083960;28;20051;-41
2022/11/05 11:08:54;;;;;;;14.38;2.40;;;24.90;95.60;;;;;;5082417;28;20358;-48
2022/11/05 11:11:39;;;;;;;22.55;2.28;;;24.90;95.80;;;;;;5083895;28;20056;-45
2022/11/05 11:14:09;;;;;;;16.83;2.45;;;24.90;95.90;;;;;;5082929;28;20036;-47
2022/11/05 11:16:38;;;;;;;14.70;2.55;;;24.90;95.90;;;;;;5084837;28;20055;-47
2022/11/05 11:19:25;;;;;;;11.48;1.70;;;24.90;95.90;;;;;;5084296;28;20038;-48
2022/11/05 11:22:03;;;;;;;8.82;1.67;;;24.90;95.90;;;;;;5084558;28;20036;-46
2022/11/05 11:24:52;;;;;;;8.50;2.20;;;24.90;95.90;;;;;;5084309;28;20136;-44
2022/11/05 11:27:28;;;;;;;10.43;2.08;;;24.90;95.90;;;;;;5084242;28;20095;-46
2022/11/05 11:29:58;;;;;;;11.73;2.35;;;24.90;95.90;;;;;;5084519;28;20032;-45
2022/11/05 11:32:36;;;;;;;9.75;2.00;;;24.90;95.90;;;;;;5084649;28;20028;-47
2022/11/05 11:35:05;;;;;;;8.82;1.85;;;24.90;96.10;;;;;;5084326;28;20032;-49
2022/11/05 11:37:40;;;;;;;14.93;1.77;;;25.00;95.90;;;;;;5084719;28;20024;-49
2022/11/05 11:40:19;;;;;;;11.10;1.60;;;24.90;95.90;;;;;;5084468;28;20029;-46
2022/11/05 11:42:54;;;;;;;16.35;2.35;;;25.00;95.90;;;;;;5084594;28;20042;-43
2022/11/05 11:45:35;;;;;;;9.35;2.58;;;25.00;95.90;;;;;;5084276;28;20095;-50
2022/11/05 11:48:06;;;;;;;9.40;2.30;;;25.00;95.80;;;;;;5084425;28;20039;-44
2022/11/05 11:50:45;;;;;;;7.45;2.03;;;25.00;95.90;;;;;;5084154;28;20032;-49
2022/11/05 11:53:21;;;;;;;5.43;2.15;;;25.00;95.90;;;;;;5084404;28;20185;-48
2022/11/05 11:56:01;;;;;;;8.57;2.33;;;25.00;95.90;;;;;;5086982;28;20324;-44
2022/11/05 11:58:53;;;;;;;3.60;2.30;;;25.00;95.90;;;;;;5087925;28;20032;-42
2022/11/05 12:01:44;;;;;;;7.80;2.30;;;25.00;96.00;;;;;;5087857;28;20040;-44
2022/11/05 12:04:31;;;;;;;6.63;2.28;;;25.00;95.90;;;;;;5087738;28;20028;-43
2022/11/05 12:07:31;;;;;;;6.18;2.20;;;25.00;95.90;;;;;;5087698;28;20048;-43
2022/11/05 12:10:16;;;;;;;8.07;1.80;;;25.00;95.90;;;;;;5087052;28;20020;-40
2022/11/05 12:12:51;;;;;;;7.15;2.03;;;25.10;96.00;;;;;;5087710;28;20036;-41
2022/11/05 12:15:41;;;;;;;6.07;1.90;;;25.10;96.00;;;;;;5087466;28;20024;-44
2022/11/05 12:18:33;;;;;;;6.72;1.85;;;25.10;95.90;;;;;;5073562;28;20325;-46
2022/11/05 12:21:06;;;;;;;6.65;2.40;;;25.10;95.90;;;;;;5087329;28;20024;-45
2022/11/05 12:24:16;;;;;;;7.78;2.40;;;25.10;95.80;;;;;;5087213;28;20048;-41
2022/11/05 12:27:01;;;;;;;8.48;2.20;;;25.10;95.90;;;;;;5053746;28;20082;-43
2022/11/05 12:29:58;;;;;;;6.07;2.35;;;25.10;95.80;;;;;;5087098;28;20028;-41
2022/11/05 12:32:57;;;;;;;9.10;2.60;;;25.10;95.80;;;;;;5087056;28;20036;-50
2022/11/05 12:35:56;;;;;;;8.98;2.70;;;25.10;95.90;;;;;;5087206;28;20032;-44
2022/11/05 12:38:30;;;;;;;7.57;2.58;;;25.20;96.10;;;;;;5086753;28;20024;-46
2022/11/05 12:41:21;;;;;;;11.05;2.30;;;25.20;96.30;;;;;;5086683;28;20024;-45
2022/11/05 12:44:15;;;;;;;8.90;3.15;;;25.20;96.00;;;;;;5086661;28;20028;-51
2022/11/05 12:47:12;;;;;;;5.78;2.65;;;25.20;96.10;;;;;;5086959;28;20040;-51
2022/11/05 12:50:10;;;;;;;7.60;2.80;;;25.20;95.90;;;;;;5086709;28;20052;-43
2022/11/05 12:52:49;;;;;;;18.50;3.75;;;25.30;95.90;;;;;;5086587;28;20101;-46
2022/11/05 12:55:23;;;;;;;6.70;3.53;;;25.30;95.90;;;;;;5086724;28;20029;-47
2022/11/05 12:57:53;;;;;;;7.30;3.67;;;25.30;95.80;;;;;;5087003;28;20028;-46
2022/11/05 13:00:28;;;;;;;9.48;3.20;;;25.30;95.80;;;;;;5086591;28;20408;-44
2022/11/05 13:03:19;;;;;;;5.60;2.75;;;25.30;95.90;;;;;;5086891;28;20028;-52
2022/11/05 13:06:39;;;;;;;6.53;2.60;;;25.30;95.80;;;;;;5086019;28;20328;-50
2022/11/05 13:09:12;;;;;;;8.27;2.92;;;25.30;95.60;;;;;;5004951;28;20342;-49
2022/11/05 13:11:51;;;;;;;7.75;2.40;;;25.40;95.60;;;;;;5004766;28;20040;-50
2022/11/05 13:14:29;;;;;;;3.95;2.13;;;25.30;95.50;;;;;;5055396;28;20271;-43
2022/11/05 13:17:27;;;;;;;4.25;1.90;;;25.40;95.40;;;;;;5086448;28;20031;-50
2022/11/05 13:20:23;;;;;;;5.07;1.70;;;25.40;95.30;;;;;;5082356;28;20036;-50
2022/11/05 13:22:59;;;;;;;4.90;1.55;;;25.40;95.20;;;;;;5086048;28;20044;-44
2022/11/05 13:25:34;;;;;;;5.93;2.15;;;25.40;95.20;;;;;;5086119;28;20033;-50
2022/11/05 13:28:19;;;;;;;5.75;2.25;;;25.50;95.20;;;;;;5086287;28;20032;-46
2022/11/05 13:30:54;;;;;;;6.75;1.83;;;25.50;95.20;;;;;;5086265;28;20035;-48
2022/11/05 13:33:40;;;;;;;6.90;2.17;;;25.50;95.10;;;;;;5085829;28;20150;-45
2022/11/05 13:39:09;;;;;;;;;;;25.50;95.00;;;;;;5062707;28;20036;-47
2022/11/05 13:42:18;;;;;;;2.28;1.30;;;25.50;94.90;;;;;;5085815;28;19908;-48
2022/11/05 13:45:13;;;;;;;3.78;1.10;;;25.50;94.90;;;;;;5085720;28;20037;-50
2022/11/05 13:48:11;;;;;;;4.13;1.25;;;25.50;95.00;;;;;;5085893;28;20039;-44
2022/11/05 13:50:52;;;;;;;4.15;1.25;;;25.50;94.90;;;;;;5085600;28;20088;-45
2022/11/05 13:53:48;;;;;;;3.97;1.33;;;25.50;94.90;;;;;;5085438;28;20029;-49
2022/11/05 13:56:44;;;;;;;4.18;1.20;;;25.50;94.90;;;;;;5085453;28;20067;-42
2022/11/05 13:59:38;;;;;;;4.57;1.17;;;25.60;94.80;;;;;;5085595;28;20091;-44
2022/11/05 14:02:21;;;;;;;3.78;1.20;;;25.60;94.80;;;;;;5085364;28;20024;-46
2022/11/05 14:04:55;;;;;;;4.85;1.33;;;25.60;94.80;;;;;;5085232;28;20031;-44
2022/11/05 14:07:42;;;;;;;4.18;1.08;;;25.60;94.70;;;;;;5085931;28;20021;-53